Time,TemperatureF,DewpointF,PressureIn,WindDirection,WindDirectionDegrees,WindSpeedMPH,WindSpeedGustMPH,Humidity,HourlyPrecipIn,Conditions,Clouds,dailyrainin,SoftwareType,DateUTC
2013-07-03 00:04:00,64.0,59.0,29.58,WNW,298,0.0,0.0,84,0.00,,,-99.99,,2013-07-03 07:04:00,
2013-07-03 00:12:00,64.0,59.0,29.58,WNW,298,0.0,0.0,84,0.00,,,-99.99,,2013-07-03 07:12:00,
2013-07-03 00:24:00,64.0,59.0,29.58,WNW,298,0.0,0.0,84,0.00,,,-99.99,,2013-07-03 07:24:00,
2013-07-03 00:43:00,64.0,59.0,29.57,WNW,298,0.0,0.0,85,0.00,,,-99.99,,2013-07-03 07:43:00,
2013-07-03 01:03:00,64.0,60.0,29.57,WNW,298,0.0,0.0,86,0.00,,,-99.99,,2013-07-03 08:03:00,
2013-07-03 01:12:00,64.0,60.0,29.57,WNW,298,0.0,0.0,86,0.00,,,-99.99,,2013-07-03 08:12:00,
2013-07-03 01:24:00,64.0,60.0,29.57,WNW,298,0.0,0.0,86,0.00,,,-99.99,,2013-07-03 08:24:00,
2013-07-03 01:35:00,64.0,60.0,29.57,WNW,298,0.0,0.0,86,0.00,,,-99.99,,2013-07-03 08:35:00,
2013-07-03 01:42:00,64.0,60.0,29.57,WNW,295,0.0,0.0,86,0.00,,,-99.99,,2013-07-03 08:42:00,
2013-07-03 01:56:00,64.0,60.0,29.57,WNW,295,0.0,0.0,86,0.00,,,-99.99,,2013-07-03 08:56:00,
2013-07-03 02:02:00,64.0,60.0,29.57,WNW,295,0.0,2.0,86,0.00,,,-99.99,,2013-07-03 09:02:00,
2013-07-03 02:12:00,64.0,60.0,29.57,WNW,295,0.0,2.0,86,0.00,,,-99.99,,2013-07-03 09:12:00,
2013-07-03 02:24:00,64.0,60.0,29.57,WNW,295,0.0,2.0,86,0.00,,,-99.99,,2013-07-03 09:24:00,
2013-07-03 02:34:00,64.0,60.0,29.57,WNW,295,0.0,2.0,86,0.00,,,-99.99,,2013-07-03 09:34:00,
2013-07-03 02:43:00,64.0,60.0,29.57,WNW,295,0.0,2.0,86,0.00,,,-99.99,,2013-07-03 09:43:00,
2013-07-03 03:04:00,64.0,60.0,29.57,WNW,300,0.0,2.0,87,0.00,,,-99.99,,2013-07-03 10:04:00,
2013-07-03 03:14:00,64.0,60.0,29.57,WNW,300,0.0,2.0,87,0.00,,,-99.99,,2013-07-03 10:14:00,
2013-07-03 03:24:00,64.0,60.0,29.57,WNW,300,0.0,2.0,87,0.00,,,-99.99,,2013-07-03 10:24:00,
2013-07-03 03:35:00,64.0,60.0,29.57,WNW,300,0.0,2.0,87,0.00,,,-99.99,,2013-07-03 10:35:00,
2013-07-03 03:43:00,64.0,60.0,29.56,WNW,300,0.0,1.0,87,0.00,,,-99.99,,2013-07-03 10:43:00,
2013-07-03 03:55:00,64.0,60.0,29.56,WNW,300,0.0,1.0,87,0.00,,,-99.99,,2013-07-03 10:55:00,
2013-07-03 04:03:00,64.0,60.0,29.56,WNW,300,0.0,0.0,88,0.00,,,-99.99,,2013-07-03 11:03:00,
2013-07-03 04:12:00,64.0,60.0,29.56,WNW,300,0.0,0.0,88,0.00,,,-99.99,,2013-07-03 11:12:00,
2013-07-03 04:23:00,64.0,60.0,29.56,WNW,300,0.0,0.0,88,0.00,,,-99.99,,2013-07-03 11:23:00,
2013-07-03 04:42:00,64.0,60.0,29.56,North,9,0.0,2.0,88,0.00,,,-99.99,,2013-07-03 11:42:00,
2013-07-03 05:03:00,64.0,60.0,29.55,ENE,60,2.0,5.0,88,0.00,,,-99.99,,2013-07-03 12:03:00,
2013-07-03 05:11:00,64.0,60.0,29.55,ENE,60,2.0,5.0,88,0.00,,,-99.99,,2013-07-03 12:11:00,
2013-07-03 05:22:00,64.0,60.0,29.55,ENE,60,2.0,5.0,88,0.00,,,-99.99,,2013-07-03 12:22:00,
2013-07-03 05:35:00,64.0,60.0,29.55,ENE,60,0.0,2.0,88,0.00,,,-99.99,,2013-07-03 12:35:00,
2013-07-03 05:43:00,64.0,60.0,29.55,ENE,60,0.0,2.0,88,0.00,,,-99.99,,2013-07-03 12:43:00,
2013-07-03 05:58:00,64.0,60.0,29.55,ENE,60,0.0,2.0,88,0.00,,,-99.99,,2013-07-03 12:58:00,
2013-07-03 06:24:00,64.0,60.0,29.57,ENE,60,0.0,0.0,88,0.00,,,-99.99,,2013-07-03 13:24:00,
2013-07-03 06:34:00,64.0,60.0,29.57,ENE,60,0.0,0.0,88,0.00,,,-99.99,,2013-07-03 13:34:00,
2013-07-03 06:44:00,64.0,60.0,29.57,ENE,60,0.0,2.0,87,0.00,,,-99.99,,2013-07-03 13:44:00,
2013-07-03 06:55:00,64.0,60.0,29.57,ENE,60,0.0,2.0,87,0.00,,,-99.99,,2013-07-03 13:55:00,
2013-07-03 07:04:00,64.0,60.0,29.57,ENE,60,0.0,2.0,87,0.00,,,-99.99,,2013-07-03 14:04:00,
2013-07-03 07:47:00,65.0,61.0,29.57,ENE,60,0.0,1.0,86,0.00,,,-99.99,,2013-07-03 14:47:00,
2013-07-03 08:02:00,65.0,61.0,29.58,ENE,60,0.0,3.0,86,0.00,,,-99.99,,2013-07-03 15:02:00,
2013-07-03 08:12:00,65.0,61.0,29.58,ENE,60,0.0,3.0,86,0.00,,,-99.99,,2013-07-03 15:12:00,
2013-07-03 08:35:00,66.0,61.0,29.58,ENE,60,0.0,1.0,85,0.00,,,-99.99,,2013-07-03 15:35:00,
2013-07-03 08:45:00,66.0,61.0,29.58,ENE,60,0.0,1.0,85,0.00,,,-99.99,,2013-07-03 15:45:00,
2013-07-03 08:57:00,66.0,61.0,29.58,ENE,60,0.0,1.0,85,0.00,,,-99.99,,2013-07-03 15:57:00,
2013-07-03 09:04:00,66.0,61.0,29.58,ENE,60,0.0,1.0,85,0.00,,,-99.99,,2013-07-03 16:04:00,
2013-07-03 09:11:00,65.0,60.0,29.59,NW,326,0.0,2.0,85,0.00,,,-99.99,,2013-07-03 16:11:00,
2013-07-03 09:23:00,65.0,60.0,29.59,NW,326,0.0,2.0,85,0.00,,,-99.99,,2013-07-03 16:23:00,
2013-07-03 09:33:00,66.0,61.0,29.58,WSW,238,1.0,5.0,85,0.00,,,-99.99,,2013-07-03 16:33:00,
2013-07-03 09:43:00,66.0,61.0,29.58,WSW,238,1.0,5.0,85,0.00,,,-99.99,,2013-07-03 16:43:00,
2013-07-03 10:03:00,66.0,61.0,29.59,West,272,1.0,3.0,84,0.00,,,-99.99,,2013-07-03 17:03:00,
2013-07-03 10:12:00,66.0,61.0,29.59,West,272,1.0,3.0,84,0.00,,,-99.99,,2013-07-03 17:12:00,
2013-07-03 10:44:00,67.0,61.0,29.58,NW,313,2.0,6.0,82,0.00,,,-99.99,,2013-07-03 17:44:00,
2013-07-03 10:54:00,67.0,61.0,29.58,NW,313,2.0,6.0,82,0.00,,,-99.99,,2013-07-03 17:54:00,
2013-07-03 11:03:00,67.0,61.0,29.58,NW,313,2.0,6.0,82,0.00,,,-99.99,,2013-07-03 18:03:00,
2013-07-03 11:46:00,72.0,62.0,29.58,NW,315,3.0,9.0,72,0.00,,,-99.99,,2013-07-03 18:46:00,
2013-07-03 12:12:00,75.0,62.0,29.57,West,277,2.0,7.0,65,0.00,,,-99.99,,2013-07-03 19:12:00,
2013-07-03 12:34:00,75.0,62.0,29.57,West,277,2.0,7.0,65,0.00,,,-99.99,,2013-07-03 19:34:00,
2013-07-03 12:44:00,76.0,63.0,29.56,SSW,210,3.0,8.0,64,0.00,,,-99.99,,2013-07-03 19:44:00,
2013-07-03 13:02:00,76.0,63.0,29.56,SSW,210,3.0,8.0,64,0.00,,,-99.99,,2013-07-03 20:02:00,
2013-07-03 13:11:00,77.0,63.0,29.55,SW,214,2.0,9.0,63,0.00,,,-99.99,,2013-07-03 20:11:00,
2013-07-03 13:23:00,77.0,63.0,29.55,SW,214,2.0,9.0,63,0.00,,,-99.99,,2013-07-03 20:23:00,
2013-07-03 13:43:00,77.0,63.0,29.55,South,186,1.0,9.0,62,0.00,,,-99.99,,2013-07-03 20:43:00,
2013-07-03 13:55:00,77.0,63.0,29.55,South,186,1.0,9.0,62,0.00,,,-99.99,,2013-07-03 20:55:00,
2013-07-03 14:03:00,76.0,62.0,29.54,WSW,238,2.0,9.0,62,0.00,,,-99.99,,2013-07-03 21:03:00,
2013-07-03 14:11:00,76.0,62.0,29.54,WSW,238,2.0,9.0,62,0.00,,,-99.99,,2013-07-03 21:11:00,
2013-07-03 14:33:00,76.0,62.0,29.54,WNW,286,1.0,7.0,62,0.00,,,-99.99,,2013-07-03 21:33:00,
2013-07-03 14:42:00,76.0,62.0,29.54,WNW,286,1.0,7.0,62,0.00,,,-99.99,,2013-07-03 21:42:00,
2013-07-03 14:54:00,76.0,62.0,29.54,WNW,286,1.0,7.0,62,0.00,,,-99.99,,2013-07-03 21:54:00,
2013-07-03 15:01:00,76.0,62.0,29.54,WNW,286,1.0,7.0,62,0.00,,,-99.99,,2013-07-03 22:01:00,
2013-07-03 15:12:00,76.0,62.0,29.54,WNW,286,1.0,7.0,62,0.00,,,-99.99,,2013-07-03 22:12:00,
2013-07-03 16:03:00,71.0,61.0,29.50,South,181,1.0,6.0,71,0.00,,,-99.99,,2013-07-03 23:03:00,
2013-07-03 16:13:00,71.0,61.0,29.50,South,181,1.0,6.0,71,0.00,,,-99.99,,2013-07-03 23:13:00,
2013-07-03 16:23:00,71.0,61.0,29.50,South,181,1.0,6.0,71,0.00,,,-99.99,,2013-07-03 23:23:00,
2013-07-03 16:35:00,71.0,61.0,29.50,South,181,1.0,6.0,71,0.00,,,-99.99,,2013-07-03 23:35:00,
2013-07-03 16:42:00,71.0,61.0,29.50,South,181,1.0,6.0,71,0.00,,,-99.99,,2013-07-03 23:42:00,
2013-07-03 17:02:00,70.0,60.0,29.50,SSW,197,1.0,5.0,70,0.00,,,-99.99,,2013-07-04 00:02:00,
2013-07-03 17:12:00,70.0,60.0,29.50,SSW,197,1.0,5.0,70,0.00,,,-99.99,,2013-07-04 00:12:00,
2013-07-03 17:22:00,70.0,60.0,29.50,SSW,197,1.0,5.0,70,0.00,,,-99.99,,2013-07-04 00:22:00,
2013-07-03 17:43:00,70.0,60.0,29.50,SW,225,0.0,6.0,71,0.00,,,-99.99,,2013-07-04 00:43:00,
2013-07-03 17:56:00,70.0,60.0,29.50,SW,225,0.0,6.0,71,0.00,,,-99.99,,2013-07-04 00:56:00,
2013-07-03 18:03:00,73.0,61.0,29.49,West,263,1.0,8.0,66,0.00,,,-99.99,,2013-07-04 01:03:00,
2013-07-03 18:12:00,73.0,61.0,29.49,West,263,1.0,8.0,66,0.00,,,-99.99,,2013-07-04 01:12:00,
2013-07-03 18:23:00,73.0,61.0,29.49,West,263,1.0,8.0,66,0.00,,,-99.99,,2013-07-04 01:23:00,
2013-07-03 18:34:00,73.0,61.0,29.49,SSW,207,0.0,3.0,66,0.00,,,-99.99,,2013-07-04 01:34:00,
2013-07-03 18:43:00,73.0,61.0,29.49,SSW,207,0.0,3.0,66,0.00,,,-99.99,,2013-07-04 01:43:00,
2013-07-03 18:54:00,73.0,61.0,29.49,SSW,207,0.0,3.0,66,0.00,,,-99.99,,2013-07-04 01:54:00,
2013-07-03 19:11:00,72.0,60.0,29.49,WSW,245,0.0,4.0,66,0.00,,,-99.99,,2013-07-04 02:11:00,
2013-07-03 19:22:00,72.0,60.0,29.49,WSW,245,0.0,4.0,66,0.00,,,-99.99,,2013-07-04 02:22:00,
2013-07-03 19:36:00,71.0,59.0,29.48,West,259,1.0,5.0,67,0.00,,,-99.99,,2013-07-04 02:36:00,
2013-07-03 19:44:00,71.0,59.0,29.48,West,259,1.0,5.0,67,0.00,,,-99.99,,2013-07-04 02:44:00,
2013-07-03 19:56:00,71.0,59.0,29.48,West,259,1.0,5.0,67,0.00,,,-99.99,,2013-07-04 02:56:00,
2013-07-03 20:03:00,69.0,60.0,29.49,West,266,0.0,4.0,72,0.00,,,-99.99,,2013-07-04 03:03:00,
2013-07-03 20:11:00,69.0,60.0,29.49,West,266,0.0,4.0,72,0.00,,,-99.99,,2013-07-04 03:11:00,
2013-07-03 20:25:00,69.0,60.0,29.49,West,266,0.0,4.0,72,0.00,,,-99.99,,2013-07-04 03:25:00,
2013-07-03 20:34:00,66.0,59.0,29.50,West,274,0.0,2.0,77,0.00,,,-99.99,,2013-07-04 03:34:00,
2013-07-03 20:43:00,66.0,59.0,29.50,West,274,0.0,2.0,77,0.00,,,-99.99,,2013-07-04 03:43:00,
2013-07-03 20:56:00,66.0,59.0,29.50,West,274,0.0,2.0,77,0.00,,,-99.99,,2013-07-04 03:56:00,
2013-07-03 21:01:00,66.0,59.0,29.50,West,274,0.0,2.0,77,0.00,,,-99.99,,2013-07-04 04:01:00,
2013-07-03 21:11:00,66.0,59.0,29.50,West,274,0.0,2.0,77,0.00,,,-99.99,,2013-07-04 04:11:00,
2013-07-03 21:43:00,65.0,59.0,29.51,West,274,0.0,1.0,81,0.00,,,-99.99,,2013-07-04 04:43:00,
2013-07-03 21:52:00,65.0,59.0,29.51,West,274,0.0,1.0,81,0.00,,,-99.99,,2013-07-04 04:52:00,
2013-07-03 22:01:00,65.0,59.0,29.50,West,279,0.0,0.0,82,0.00,,,-99.99,,2013-07-04 05:01:00,
2013-07-03 22:12:00,65.0,59.0,29.50,West,279,0.0,0.0,82,0.00,,,-99.99,,2013-07-04 05:12:00,
2013-07-03 22:22:00,65.0,59.0,29.50,West,279,0.0,0.0,82,0.00,,,-99.99,,2013-07-04 05:22:00,
2013-07-03 22:32:00,65.0,59.0,29.50,West,279,0.0,0.0,82,0.00,,,-99.99,,2013-07-04 05:32:00,
2013-07-03 22:42:00,65.0,59.0,29.50,West,279,0.0,0.0,82,0.00,,,-99.99,,2013-07-04 05:42:00,
2013-07-03 23:01:00,64.0,59.0,29.50,West,278,0.0,0.0,83,0.00,,,-99.99,,2013-07-04 06:01:00,
2013-07-03 23:11:00,64.0,59.0,29.50,West,278,0.0,0.0,83,0.00,,,-99.99,,2013-07-04 06:11:00,
2013-07-03 23:22:00,64.0,59.0,29.50,West,278,0.0,0.0,83,0.00,,,-99.99,,2013-07-04 06:22:00,
2013-07-03 23:34:00,64.0,59.0,29.51,West,278,0.0,0.0,83,0.00,,,-99.99,,2013-07-04 06:34:00,
2013-07-03 23:42:00,64.0,59.0,29.51,West,278,0.0,0.0,83,0.00,,,-99.99,,2013-07-04 06:42:00,
2013-07-03 23:53:00,64.0,59.0,29.51,West,278,0.0,0.0,83,0.00,,,-99.99,,2013-07-04 06:53:00,